createdAt,value
2018-11-25T00:00:11.489Z,3.50
2018-11-25T00:02:40.074Z,3.50
2018-11-25T00:05:09.554Z,3.50
2018-11-25T00:07:38.113Z,3.50
2018-11-25T00:10:07.590Z,3.50
2018-11-25T00:12:36.290Z,3.50
2018-11-25T00:15:05.714Z,3.50
2018-11-25T00:17:34.306Z,3.50
2018-11-25T00:20:10.822Z,3.50
2018-11-25T00:22:39.571Z,3.40
2018-11-25T00:25:10.572Z,3.50
2018-11-25T00:27:39.271Z,3.50
2018-11-25T00:30:12.226Z,3.50
2018-11-25T00:32:40.984Z,3.50
2018-11-25T00:35:10.996Z,3.50
2018-11-25T00:37:43.364Z,3.50
2018-11-25T00:40:10.851Z,3.50
2018-11-25T00:42:39.438Z,3.50
2018-11-25T00:45:11.011Z,3.50
2018-11-25T00:47:39.587Z,3.50
2018-11-25T00:50:10.047Z,3.50
2018-11-25T00:52:38.620Z,3.40
2018-11-25T00:55:09.531Z,3.50
2018-11-25T00:57:38.254Z,3.50
2018-11-25T01:00:13.618Z,3.40
2018-11-25T01:02:42.218Z,3.40
2018-11-25T01:05:11.420Z,3.50
2018-11-25T01:07:40.027Z,3.50
2018-11-25T01:10:11.047Z,3.50
2018-11-25T01:12:39.685Z,3.50
2018-11-25T01:15:10.437Z,3.50
2018-11-25T01:17:39.061Z,3.50
2018-11-25T01:20:11.423Z,3.50
2018-11-25T01:22:40.019Z,3.50
2018-11-25T01:25:09.969Z,3.50
2018-11-25T01:27:38.681Z,3.50
2018-11-25T01:30:15.176Z,3.50
2018-11-25T01:32:43.839Z,3.50
2018-11-25T01:35:13.218Z,3.50
2018-11-25T01:37:42.112Z,3.50
2018-11-25T01:40:14.897Z,3.50
2018-11-25T01:42:43.532Z,3.50
2018-11-25T01:45:14.369Z,3.50
2018-11-25T01:47:42.959Z,3.50
2018-11-25T01:50:13.005Z,3.50
2018-11-25T01:52:41.953Z,3.50
2018-11-25T01:55:12.043Z,3.50
2018-11-25T01:57:40.653Z,3.50
2018-11-25T02:00:15.471Z,3.50
2018-11-25T02:02:44.129Z,3.50
2018-11-25T02:05:12.745Z,3.50
2018-11-25T02:07:41.315Z,3.40
2018-11-25T02:10:12.417Z,3.50
2018-11-25T02:12:41.148Z,3.50
2018-11-25T02:15:11.092Z,3.50
2018-11-25T02:17:39.746Z,3.40
2018-11-25T02:20:12.918Z,3.40
2018-11-25T02:22:41.667Z,3.40
2018-11-25T02:25:10.421Z,3.40
2018-11-25T02:27:39.009Z,3.40
2018-11-25T02:30:11.888Z,3.40
2018-11-25T02:32:40.484Z,3.40
2018-11-25T02:35:10.558Z,3.40
2018-11-25T02:37:39.205Z,3.40
2018-11-25T02:40:12.914Z,3.40
2018-11-25T02:42:41.531Z,3.30
2018-11-25T02:45:19.544Z,3.40
2018-11-25T02:47:48.330Z,3.40
2018-11-25T02:50:29.405Z,3.40
2018-11-25T02:52:59.340Z,3.40
2018-11-25T02:55:28.439Z,3.40
2018-11-25T02:57:57.083Z,3.40
2018-11-25T03:00:25.864Z,3.40
2018-11-25T03:02:54.658Z,3.40
2018-11-25T03:05:23.309Z,3.40
2018-11-25T03:07:51.946Z,3.40
2018-11-25T03:10:20.530Z,3.40
2018-11-25T03:12:49.161Z,3.40
2018-11-25T03:15:18.510Z,3.40
2018-11-25T03:17:47.161Z,3.30
2018-11-25T03:20:16.685Z,3.30
2018-11-25T03:22:45.348Z,3.30
2018-11-25T03:25:15.018Z,3.30
2018-11-25T03:27:43.636Z,3.30
2018-11-25T03:30:18.244Z,3.30
2018-11-25T03:32:47.740Z,3.30
2018-11-25T03:35:16.374Z,3.20
2018-11-25T03:37:45.066Z,3.30
2018-11-25T03:40:15.910Z,3.20
2018-11-25T03:42:44.787Z,3.20
2018-11-25T03:45:15.427Z,3.20
2018-11-25T03:47:44.023Z,3.20
2018-11-25T03:50:13.881Z,3.20
2018-11-25T03:52:42.464Z,3.20
2018-11-25T03:55:12.930Z,3.20
2018-11-25T03:57:41.526Z,3.20
2018-11-25T04:00:19.061Z,3.20
2018-11-25T04:02:48.275Z,3.20
2018-11-25T04:05:17.654Z,3.20
2018-11-25T04:07:46.242Z,3.20
2018-11-25T04:10:16.658Z,3.20
2018-11-25T04:12:45.383Z,3.20
2018-11-25T04:15:15.124Z,3.20
2018-11-25T04:17:43.728Z,3.20
2018-11-25T04:20:17.243Z,3.10
2018-11-25T04:22:45.853Z,3.20
2018-11-25T04:25:14.683Z,3.10
2018-11-25T04:27:43.271Z,3.10
2018-11-25T04:30:14.430Z,3.10
2018-11-25T04:32:43.533Z,3.10
2018-11-25T04:35:12.983Z,3.10
2018-11-25T04:37:41.833Z,3.10
2018-11-25T04:40:11.605Z,3.10
2018-11-25T04:42:40.393Z,3.10
2018-11-25T04:45:11.257Z,3.10
2018-11-25T04:47:40.082Z,3.10
2018-11-25T04:50:14.127Z,3.10
2018-11-25T04:52:42.771Z,3.10
2018-11-25T04:55:11.615Z,3.10
2018-11-25T04:57:40.211Z,3.00
2018-11-25T05:00:11.686Z,3.00
2018-11-25T05:02:41.034Z,3.10
2018-11-25T05:05:11.028Z,3.10
2018-11-25T05:07:39.853Z,3.10
2018-11-25T05:10:13.315Z,3.10
2018-11-25T05:12:41.951Z,3.10
2018-11-25T05:15:14.918Z,3.10
2018-11-25T05:17:43.538Z,3.10
2018-11-25T05:20:12.915Z,3.20
2018-11-25T05:22:41.650Z,3.20
2018-11-25T05:25:11.810Z,3.20
2018-11-25T05:27:40.393Z,3.20
2018-11-25T05:30:13.269Z,3.20
2018-11-25T05:32:42.015Z,3.20
2018-11-25T05:35:12.054Z,3.20
2018-11-25T05:37:40.705Z,3.20
2018-11-25T05:40:11.561Z,3.20
2018-11-25T05:42:40.257Z,3.20
2018-11-25T05:45:15.130Z,3.20
2018-11-25T05:47:43.965Z,3.20
2018-11-25T05:50:14.715Z,3.20
2018-11-25T05:52:43.529Z,3.20
2018-11-25T05:55:12.824Z,3.20
2018-11-25T05:57:41.813Z,3.30
2018-11-25T06:00:16.972Z,3.30
2018-11-25T06:02:45.783Z,3.30
2018-11-25T06:05:14.460Z,3.30
2018-11-25T06:07:43.042Z,3.30
2018-11-25T06:10:12.753Z,3.30
2018-11-25T06:12:41.414Z,3.30
2018-11-25T06:15:12.024Z,3.30
2018-11-25T06:17:40.810Z,3.30
2018-11-25T06:20:14.942Z,3.30
2018-11-25T06:22:43.951Z,3.30
2018-11-25T06:25:14.777Z,3.30
2018-11-25T06:27:43.357Z,3.30
2018-11-25T06:30:14.153Z,3.30
2018-11-25T06:32:42.765Z,3.40
2018-11-25T06:35:12.897Z,3.40
2018-11-25T06:37:41.520Z,3.40
2018-11-25T06:40:13.465Z,3.30
2018-11-25T06:42:42.078Z,3.40
2018-11-25T06:45:20.670Z,3.40
2018-11-25T06:47:49.304Z,3.40
2018-11-25T06:50:17.928Z,3.40
2018-11-25T06:52:46.731Z,3.40
2018-11-25T06:55:15.334Z,3.40
2018-11-25T06:57:43.928Z,3.40
2018-11-25T07:00:22.131Z,3.40
2018-11-25T07:02:50.871Z,3.40
2018-11-25T07:05:19.532Z,3.40
2018-11-25T07:07:48.110Z,3.40
2018-11-25T07:10:18.944Z,3.50
2018-11-25T07:12:48.506Z,3.50
2018-11-25T07:15:18.688Z,3.50
2018-11-25T07:17:47.436Z,3.50
2018-11-25T07:20:17.805Z,3.50
2018-11-25T07:22:46.441Z,3.50
2018-11-25T07:25:16.125Z,3.50
2018-11-25T07:27:44.812Z,3.50
2018-11-25T07:30:28.709Z,3.50
2018-11-25T07:32:57.445Z,3.50
2018-11-25T07:35:27.073Z,3.50
2018-11-25T07:37:56.674Z,3.50
2018-11-25T07:40:26.061Z,3.60
2018-11-25T07:42:54.773Z,3.60
2018-11-25T07:45:30.075Z,3.60
2018-11-25T07:47:53.363Z,3.60
2018-11-25T07:50:22.003Z,3.60
2018-11-25T07:52:51.113Z,3.60
2018-11-25T07:55:21.896Z,3.70
2018-11-25T07:57:51.469Z,3.60
2018-11-25T08:00:24.856Z,3.60
2018-11-25T08:02:53.481Z,3.60
2018-11-25T08:05:23.364Z,3.60
2018-11-25T08:07:52.424Z,3.70
2018-11-25T08:10:21.084Z,3.70
2018-11-25T08:12:49.859Z,3.70
2018-11-25T08:15:19.395Z,3.70
2018-11-25T08:17:48.067Z,3.70
2018-11-25T08:20:17.840Z,3.70
2018-11-25T08:22:46.534Z,3.70
2018-11-25T08:25:18.240Z,3.80
2018-11-25T08:27:46.922Z,3.80
2018-11-25T08:30:18.520Z,3.80
2018-11-25T08:32:47.394Z,3.80
2018-11-25T08:35:16.634Z,3.80
2018-11-25T08:37:45.282Z,3.80
2018-11-25T08:40:19.784Z,3.80
2018-11-25T08:56:12.166Z,3.80
2018-11-25T08:58:40.717Z,3.90
2018-11-25T09:01:09.525Z,3.90
2018-11-25T09:03:38.855Z,3.90
2018-11-25T09:06:07.525Z,3.90
2018-11-25T09:08:36.122Z,3.90
2018-11-25T09:11:05.205Z,3.90
2018-11-25T09:13:33.725Z,3.90
2018-11-25T09:16:02.313Z,3.90
2018-11-25T09:18:30.931Z,3.90
2018-11-25T09:20:59.515Z,3.90
2018-11-25T09:23:28.067Z,3.90
2018-11-25T09:25:57.000Z,3.90
2018-11-25T09:28:25.613Z,4.00
2018-11-25T09:30:54.314Z,4.00
2018-11-25T09:33:22.814Z,4.00
2018-11-25T09:35:51.530Z,4.00
2018-11-25T09:38:20.297Z,4.00
2018-11-25T09:40:48.841Z,4.10
2018-11-25T09:43:17.466Z,4.10
2018-11-25T09:45:46.104Z,4.10
2018-11-25T09:48:16.025Z,4.10
2018-11-25T09:50:43.569Z,4.10
2018-11-25T09:53:12.137Z,4.10
2018-11-25T09:55:40.707Z,4.10
2018-11-25T09:58:09.322Z,4.10
2018-11-25T10:00:37.857Z,4.10
2018-11-25T10:03:07.843Z,4.10
2018-11-25T10:05:36.395Z,4.10
2018-11-25T10:08:05.008Z,4.10
2018-11-25T10:10:33.649Z,4.10
2018-11-25T10:13:02.522Z,4.10
2018-11-25T10:15:31.359Z,4.10
2018-11-25T10:18:00.318Z,4.10
2018-11-25T10:20:32.408Z,4.10
2018-11-25T10:23:00.935Z,4.20
2018-11-25T10:25:29.516Z,4.20
2018-11-25T10:27:58.281Z,4.10
2018-11-25T10:30:28.077Z,4.20
2018-11-25T10:32:58.800Z,4.20
2018-11-25T10:35:27.368Z,4.30
2018-11-25T10:37:56.104Z,4.30
2018-11-25T10:40:25.367Z,4.30
2018-11-25T10:42:53.972Z,4.30
2018-11-25T10:45:24.880Z,4.30
2018-11-25T10:47:53.885Z,4.20
2018-11-25T10:50:23.043Z,4.30
2018-11-25T10:52:51.941Z,4.30
2018-11-25T10:55:21.251Z,4.30
2018-11-25T10:57:50.975Z,4.30
2018-11-25T11:00:29.107Z,4.30
2018-11-25T11:03:03.012Z,4.40
2018-11-25T11:05:36.773Z,4.40
2018-11-25T11:08:05.934Z,4.40
2018-11-25T11:10:34.583Z,4.40
2018-11-25T11:13:03.213Z,4.40
2018-11-25T11:15:31.829Z,4.40
2018-11-25T11:18:00.648Z,4.40
2018-11-25T11:20:29.210Z,4.40
2018-11-25T11:22:57.980Z,4.50
2018-11-25T11:25:27.482Z,4.50
2018-11-25T11:27:56.450Z,4.50
2018-11-25T11:30:25.345Z,4.50
2018-11-25T11:32:54.461Z,4.50
2018-11-25T11:35:24.243Z,4.50
2018-11-25T11:37:54.418Z,4.50
2018-11-25T11:40:23.935Z,4.50
2018-11-25T11:42:56.149Z,4.60
2018-11-25T11:45:25.617Z,4.80
2018-11-25T11:47:54.207Z,5.00
2018-11-25T11:50:23.003Z,4.90
2018-11-25T11:52:51.585Z,5.00
2018-11-25T11:55:20.145Z,5.00
2018-11-25T11:57:48.979Z,4.90
2018-11-25T12:00:27.835Z,4.90
2018-11-25T12:02:56.371Z,4.80
2018-11-25T12:05:24.925Z,4.80
2018-11-25T12:07:53.579Z,4.80
2018-11-25T12:10:22.140Z,4.80
2018-11-25T12:12:50.695Z,4.80
2018-11-25T12:15:34.141Z,4.80
2018-11-25T12:18:02.948Z,4.80
2018-11-25T12:20:32.197Z,4.80
2018-11-25T12:23:01.602Z,4.80
2018-11-25T12:25:30.234Z,4.80
2018-11-25T12:27:59.076Z,4.80
2018-11-25T12:30:27.905Z,4.80
2018-11-25T12:32:56.823Z,4.80
2018-11-25T12:35:25.401Z,4.80
2018-11-25T12:37:54.009Z,4.80
2018-11-25T12:40:23.360Z,4.80
2018-11-25T12:42:54.337Z,4.90
2018-11-25T12:45:23.096Z,4.80
2018-11-25T12:47:51.749Z,4.80
2018-11-25T12:50:23.070Z,4.90
2018-11-25T12:52:51.745Z,4.90
2018-11-25T12:55:22.684Z,4.90
2018-11-25T12:57:51.195Z,4.90
2018-11-25T13:00:30.237Z,4.90
2018-11-25T13:02:58.868Z,4.90
2018-11-25T13:05:28.202Z,5.00
2018-11-25T13:07:56.849Z,5.00
2018-11-25T13:10:25.490Z,5.00
2018-11-25T13:12:54.126Z,5.00
2018-11-25T13:15:22.679Z,5.00
2018-11-25T13:17:51.490Z,5.00
2018-11-25T13:20:20.353Z,5.00
2018-11-25T13:22:48.921Z,5.00
2018-11-25T13:25:18.250Z,5.10
2018-11-25T13:27:46.798Z,5.10
2018-11-25T13:30:22.600Z,5.10
2018-11-25T13:32:52.509Z,5.10
2018-11-25T13:35:21.145Z,5.10
2018-11-25T13:37:49.715Z,5.20
2018-11-25T13:40:18.355Z,5.20
2018-11-25T13:42:47.044Z,5.20
2018-11-25T13:45:15.741Z,5.10
2018-11-25T13:47:44.295Z,5.20
2018-11-25T13:50:13.140Z,5.20
2018-11-25T13:52:41.662Z,5.20
2018-11-25T13:55:17.946Z,5.20
2018-11-25T13:57:46.448Z,5.20
2018-11-25T14:01:17.996Z,5.20
2018-11-25T14:03:46.624Z,5.20
2018-11-25T14:06:15.649Z,5.20
2018-11-25T14:08:47.042Z,5.20
2018-11-25T14:11:15.658Z,5.20
2018-11-25T14:13:44.477Z,5.20
2018-11-25T14:16:15.205Z,5.20
2018-11-25T14:18:43.760Z,5.20
2018-11-25T14:21:12.331Z,5.20
2018-11-25T14:23:40.905Z,5.20
2018-11-25T14:26:15.194Z,5.20
2018-11-25T14:28:44.051Z,5.20
2018-11-25T14:31:12.691Z,5.20
2018-11-25T14:33:41.234Z,5.20
2018-11-25T14:36:10.040Z,5.20
2018-11-25T14:38:38.914Z,5.20
2018-11-25T14:41:07.582Z,5.20
2018-11-25T14:43:36.510Z,5.20
2018-11-25T14:46:05.074Z,5.20
2018-11-25T14:48:33.660Z,5.20
2018-11-25T14:51:02.276Z,5.20
2018-11-25T14:53:30.910Z,5.20
2018-11-25T14:55:59.460Z,5.20
2018-11-25T14:58:27.990Z,5.20
2018-11-25T15:00:56.560Z,5.20
2018-11-25T15:03:25.717Z,5.20
2018-11-25T15:05:54.373Z,5.20
2018-11-25T15:08:24.966Z,5.20
2018-11-25T15:10:53.777Z,5.20
2018-11-25T15:13:22.611Z,5.30
2018-11-25T15:15:51.419Z,5.20
2018-11-25T15:18:20.169Z,5.20
2018-11-25T15:20:48.745Z,5.20
2018-11-25T15:23:17.387Z,5.30
2018-11-25T15:25:51.022Z,5.30
2018-11-25T15:28:18.219Z,5.20
2018-11-25T15:30:47.054Z,5.30
2018-11-25T15:33:15.654Z,5.20
2018-11-25T15:35:44.403Z,5.20
2018-11-25T15:38:12.960Z,5.30
2018-11-25T15:40:41.905Z,5.30
2018-11-25T15:43:11.577Z,5.30
2018-11-25T15:45:40.234Z,5.30
2018-11-25T15:48:10.755Z,5.30
2018-11-25T15:50:39.376Z,5.30
2018-11-25T15:53:09.200Z,5.30
2018-11-25T15:55:37.786Z,5.30
2018-11-25T15:58:07.139Z,5.30
2018-11-25T16:00:36.034Z,5.30
2018-11-25T16:03:06.417Z,5.30
2018-11-25T16:05:34.933Z,5.30
2018-11-25T16:08:04.474Z,5.30
2018-11-25T16:10:32.240Z,5.30
2018-11-25T16:13:00.876Z,5.30
2018-11-25T16:15:29.585Z,5.30
2018-11-25T16:17:58.191Z,5.30
2018-11-25T16:20:27.683Z,5.30
2018-11-25T16:22:58.527Z,5.30
2018-11-25T16:25:30.340Z,5.30
2018-11-25T16:28:01.134Z,5.30
2018-11-25T16:30:29.706Z,5.30
2018-11-25T16:32:58.297Z,5.30
2018-11-25T16:35:26.856Z,5.30
2018-11-25T16:37:55.400Z,5.30
2018-11-25T16:40:24.390Z,5.30
2018-11-25T16:42:52.954Z,5.30
2018-11-25T16:45:21.606Z,5.30
2018-11-25T16:47:50.192Z,5.30
2018-11-25T16:50:24.944Z,5.30
2018-11-25T16:52:48.009Z,5.30
2018-11-25T16:55:16.779Z,5.30
2018-11-25T16:57:45.450Z,5.30
2018-11-25T17:00:15.248Z,5.30
2018-11-25T17:02:43.806Z,5.30
2018-11-25T17:05:16.653Z,5.30
2018-11-25T17:07:46.105Z,5.30
2018-11-25T17:10:14.652Z,5.30
2018-11-25T17:12:43.252Z,5.30
2018-11-25T17:15:17.527Z,5.30
2018-11-25T17:17:46.145Z,5.30
2018-11-25T17:20:14.702Z,5.30
2018-11-25T17:22:43.289Z,5.30
2018-11-25T17:25:12.800Z,5.30
2018-11-25T17:27:41.436Z,5.30
2018-11-25T17:30:13.946Z,5.30
2018-11-25T17:32:42.914Z,5.30
2018-11-25T17:35:17.702Z,5.30
2018-11-25T17:37:46.266Z,5.30
2018-11-25T17:40:14.847Z,5.30
2018-11-25T17:42:43.558Z,5.30
2018-11-25T17:45:13.292Z,5.30
2018-11-25T17:47:42.215Z,5.30
2018-11-25T17:50:23.011Z,5.30
2018-11-25T17:52:51.692Z,5.30
2018-11-25T17:55:21.548Z,5.30
2018-11-25T17:57:50.189Z,5.40
2018-11-25T18:00:45.429Z,5.30
2018-11-25T18:03:17.978Z,5.30
2018-11-25T18:05:46.538Z,5.30
2018-11-25T18:08:15.347Z,5.30
2018-11-25T18:10:44.007Z,5.30
2018-11-25T18:13:12.924Z,5.30
2018-11-25T18:15:41.483Z,5.30
2018-11-25T18:18:19.530Z,5.30
2018-11-25T18:20:50.194Z,5.30
2018-11-25T18:23:18.800Z,5.30
2018-11-25T18:25:47.356Z,5.30
2018-11-25T18:28:16.814Z,5.30
2018-11-25T18:30:45.410Z,5.30
2018-11-25T18:33:14.022Z,5.30
2018-11-25T18:35:42.609Z,5.30
2018-11-25T18:38:11.141Z,5.30
2018-11-25T18:40:40.707Z,5.30
2018-11-25T18:43:09.289Z,5.40
2018-11-25T18:45:37.850Z,5.40
2018-11-25T18:48:08.085Z,5.40
2018-11-25T18:50:36.795Z,5.40
2018-11-25T18:53:06.231Z,5.30
2018-11-25T18:55:33.665Z,5.30
2018-11-25T18:58:02.301Z,5.30
2018-11-25T19:01:10.906Z,5.30
2018-11-25T19:03:39.929Z,5.30
2018-11-25T19:06:08.678Z,5.30
2018-11-25T19:08:37.442Z,5.30
2018-11-25T19:11:06.153Z,5.30
2018-11-25T19:13:34.928Z,5.30
2018-11-25T19:16:03.804Z,5.20
2018-11-25T19:18:32.414Z,5.20
2018-11-25T19:21:00.968Z,5.30
2018-11-25T19:23:29.646Z,5.30
2018-11-25T19:25:58.296Z,5.30
2018-11-25T19:28:26.863Z,5.30
2018-11-25T19:30:55.512Z,5.30
2018-11-25T19:33:24.187Z,5.30
2018-11-25T19:35:52.769Z,5.30
2018-11-25T19:38:21.287Z,5.30
2018-11-25T19:40:50.238Z,5.20
2018-11-25T19:43:18.973Z,5.20
2018-11-25T19:45:47.588Z,5.30
2018-11-25T19:48:16.257Z,5.30
2018-11-25T19:50:45.427Z,5.20
2018-11-25T19:53:14.160Z,5.20
2018-11-25T19:55:43.194Z,5.20
2018-11-25T19:58:11.870Z,5.20
2018-11-25T20:00:40.592Z,5.20
2018-11-25T20:03:09.240Z,5.20
2018-11-25T20:05:38.132Z,5.20
2018-11-25T20:08:07.382Z,5.20
2018-11-25T20:10:35.948Z,5.20
2018-11-25T20:13:04.696Z,5.20
2018-11-25T20:15:33.254Z,5.20
2018-11-25T20:18:02.147Z,5.20
2018-11-25T20:20:30.920Z,5.20
2018-11-25T20:22:59.748Z,5.20
2018-11-25T20:25:28.897Z,5.20
2018-11-25T20:27:58.093Z,5.20
2018-11-25T20:30:28.623Z,5.20
2018-11-25T20:33:02.441Z,5.20
2018-11-25T20:35:31.029Z,5.20
2018-11-25T20:38:05.173Z,5.20
2018-11-25T20:40:33.763Z,5.20
2018-11-25T20:43:02.307Z,5.20
2018-11-25T20:45:39.165Z,5.20
2018-11-25T20:48:04.970Z,5.20
2018-11-25T20:50:33.727Z,5.20
2018-11-25T20:53:07.652Z,5.20
2018-11-25T20:55:36.758Z,5.20
2018-11-25T20:58:07.206Z,5.20
2018-11-25T21:00:36.060Z,5.20
2018-11-25T21:03:05.347Z,5.20
2018-11-25T21:05:34.215Z,5.10
2018-11-25T21:08:03.037Z,5.20
2018-11-25T21:10:31.659Z,5.20
2018-11-25T21:13:00.319Z,5.20
2018-11-25T21:15:28.867Z,5.20
2018-11-25T21:17:57.419Z,5.20
2018-11-25T21:20:26.489Z,5.20
2018-11-25T21:22:55.207Z,5.20
2018-11-25T21:25:24.517Z,5.20
2018-11-25T21:27:53.058Z,5.20
2018-11-25T21:30:23.131Z,5.20
2018-11-25T21:32:54.275Z,5.10
2018-11-25T21:35:22.947Z,5.20
2018-11-25T21:37:51.502Z,5.20
2018-11-25T21:40:21.391Z,5.20
2018-11-25T21:42:50.131Z,5.20
2018-11-25T21:45:19.575Z,5.10
2018-11-25T21:47:48.751Z,5.10
2018-11-25T21:50:22.476Z,5.10
2018-11-25T21:52:51.064Z,5.20
2018-11-25T21:55:19.876Z,5.10
2018-11-25T21:57:48.440Z,5.20
2018-11-25T22:00:18.272Z,5.10
2018-11-25T22:02:46.902Z,5.10
2018-11-25T22:05:15.873Z,5.10
2018-11-25T22:07:44.776Z,5.10
2018-11-25T22:10:16.946Z,5.10
2018-11-25T22:12:46.589Z,5.10
2018-11-25T22:15:17.293Z,5.10
2018-11-25T22:17:45.831Z,5.10
2018-11-25T22:20:15.598Z,5.00
2018-11-25T22:22:44.167Z,5.00
2018-11-25T22:25:14.920Z,5.00
2018-11-25T22:27:43.912Z,5.00
2018-11-25T22:30:14.723Z,5.00
2018-11-25T22:32:43.521Z,5.00
2018-11-25T22:35:13.538Z,5.00
2018-11-25T22:37:42.403Z,5.00
2018-11-25T22:40:11.935Z,5.00
2018-11-25T22:42:41.318Z,5.00
2018-11-25T22:45:12.075Z,5.00
2018-11-25T22:47:40.910Z,5.00
2018-11-25T22:50:27.683Z,5.00
2018-11-25T22:52:53.932Z,5.00
2018-11-25T22:55:24.162Z,5.00
2018-11-25T22:57:52.727Z,5.00
2018-11-25T23:00:27.444Z,5.00
2018-11-25T23:02:56.039Z,5.00
2018-11-25T23:05:35.716Z,5.00
2018-11-25T23:08:04.463Z,5.00
2018-11-25T23:10:33.153Z,5.00
2018-11-25T23:13:01.693Z,5.00
2018-11-25T23:15:30.278Z,5.00
2018-11-25T23:17:58.938Z,5.00
2018-11-25T23:20:27.575Z,4.90
2018-11-25T23:22:56.241Z,4.90
2018-11-25T23:25:25.165Z,4.90
2018-11-25T23:27:53.706Z,5.00
2018-11-25T23:30:22.380Z,5.00
2018-11-25T23:32:50.902Z,4.90
2018-11-25T23:35:24.143Z,4.90
2018-11-25T23:37:52.658Z,4.90
2018-11-25T23:40:21.264Z,4.90
2018-11-25T23:42:49.910Z,4.90
2018-11-25T23:45:18.463Z,4.90
2018-11-25T23:47:47.446Z,4.90
2018-11-25T23:50:16.225Z,4.90
2018-11-25T23:52:46.658Z,4.90
2018-11-25T23:55:15.926Z,4.90
2018-11-25T23:57:44.501Z,4.90
